sensor_id;sensor_type;location;lat;lon;timestamp;P1;durP1;ratioP1;P2;durP2;ratioP2
6356;SDS011;3211;53.452;-2.264;2022-11-20T00:01:03;8.20;;;3.50;;
6356;SDS011;3211;53.452;-2.264;2022-11-20T00:03:31;14.40;;;3.77;;
6356;SDS011;3211;53.452;-2.264;2022-11-20T00:05:59;9.70;;;3.60;;
6356;SDS011;3211;53.452;-2.264;2022-11-20T00:08:33;7.13;;;3.57;;
6356;SDS011;3211;53.452;-2.264;2022-11-20T00:11:02;5.40;;;3.47;;
6356;SDS011;3211;53.452;-2.264;2022-11-20T00:13:49;18.70;;;4.53;;
6356;SDS011;3211;53.452;-2.264;2022-11-20T00:16:18;8.40;;;3.50;;
6356;SDS011;3211;53.452;-2.264;2022-11-20T00:18:46;9.43;;;2.97;;
6356;SDS011;3211;53.452;-2.264;2022-11-20T00:21:14;5.90;;;3.07;;
6356;SDS011;3211;53.452;-2.264;2022-11-20T00:23:44;14.97;;;4.20;;
6356;SDS011;3211;53.452;-2.264;2022-11-20T00:26:12;5.77;;;3.13;;
6356;SDS011;3211;53.452;-2.264;2022-11-20T00:28:59;13.90;;;3.90;;
6356;SDS011;3211;53.452;-2.264;2022-11-20T00:31:27;16.07;;;3.80;;
6356;SDS011;3211;53.452;-2.264;2022-11-20T00:33:55;6.37;;;3.53;;
6356;SDS011;3211;53.452;-2.264;2022-11-20T00:36:22;7.53;;;3.60;;
6356;SDS011;3211;53.452;-2.264;2022-11-20T00:38:52;6.80;;;3.57;;
6356;SDS011;3211;53.452;-2.264;2022-11-20T00:41:23;8.10;;;3.33;;
6356;SDS011;3211;53.452;-2.264;2022-11-20T00:43:51;12.93;;;3.90;;
6356;SDS011;3211;53.452;-2.264;2022-11-20T00:46:19;7.80;;;3.50;;
6356;SDS011;3211;53.452;-2.264;2022-11-20T00:48:48;5.50;;;3.27;;
6356;SDS011;3211;53.452;-2.264;2022-11-20T00:51:19;6.83;;;4.37;;
6356;SDS011;3211;53.452;-2.264;2022-11-20T00:53:47;17.70;;;3.90;;
6356;SDS011;3211;53.452;-2.264;2022-11-20T00:56:17;5.33;;;3.00;;
6356;SDS011;3211;53.452;-2.264;2022-11-20T00:58:46;6.33;;;3.67;;
6356;SDS011;3211;53.452;-2.264;2022-11-20T01:01:14;8.20;;;3.90;;
6356;SDS011;3211;53.452;-2.264;2022-11-20T01:03:43;8.80;;;4.00;;
6356;SDS011;3211;53.452;-2.264;2022-11-20T01:06:12;7.93;;;3.53;;
6356;SDS011;3211;53.452;-2.264;2022-11-20T01:08:40;7.37;;;4.03;;
6356;SDS011;3211;53.452;-2.264;2022-11-20T01:11:08;8.33;;;4.20;;
6356;SDS011;3211;53.452;-2.264;2022-11-20T01:13:57;11.70;;;4.90;;
6356;SDS011;3211;53.452;-2.264;2022-11-20T01:16:25;9.93;;;3.87;;
6356;SDS011;3211;53.452;-2.264;2022-11-20T01:18:55;9.07;;;4.57;;
6356;SDS011;3211;53.452;-2.264;2022-11-20T01:21:24;13.93;;;4.17;;
6356;SDS011;3211;53.452;-2.264;2022-11-20T01:23:52;10.20;;;3.93;;
6356;SDS011;3211;53.452;-2.264;2022-11-20T01:26:23;10.27;;;5.00;;
6356;SDS011;3211;53.452;-2.264;2022-11-20T01:28:53;9.80;;;4.67;;
6356;SDS011;3211;53.452;-2.264;2022-11-20T01:31:23;8.13;;;4.50;;
6356;SDS011;3211;53.452;-2.264;2022-11-20T01:33:52;11.77;;;4.60;;
6356;SDS011;3211;53.452;-2.264;2022-11-20T01:36:22;7.70;;;4.40;;
6356;SDS011;3211;53.452;-2.264;2022-11-20T01:38:50;9.80;;;3.70;;
6356;SDS011;3211;53.452;-2.264;2022-11-20T01:41:18;7.23;;;3.70;;
6356;SDS011;3211;53.452;-2.264;2022-11-20T01:43:59;7.87;;;3.67;;
6356;SDS011;3211;53.452;-2.264;2022-11-20T01:46:29;6.53;;;3.50;;
6356;SDS011;3211;53.452;-2.264;2022-11-20T01:48:58;5.53;;;3.00;;
6356;SDS011;3211;53.452;-2.264;2022-11-20T01:51:29;6.13;;;3.40;;
6356;SDS011;3211;53.452;-2.264;2022-11-20T01:54:00;5.70;;;3.03;;
6356;SDS011;3211;53.452;-2.264;2022-11-20T01:56:29;6.20;;;3.77;;
6356;SDS011;3211;53.452;-2.264;2022-11-20T01:59:01;6.73;;;3.23;;
6356;SDS011;3211;53.452;-2.264;2022-11-20T02:01:33;5.57;;;3.90;;
6356;SDS011;3211;53.452;-2.264;2022-11-20T02:04:00;7.43;;;3.87;;
6356;SDS011;3211;53.452;-2.264;2022-11-20T02:06:32;9.90;;;3.77;;
6356;SDS011;3211;53.452;-2.264;2022-11-20T02:09:05;8.00;;;3.37;;
6356;SDS011;3211;53.452;-2.264;2022-11-20T02:11:32;7.80;;;3.63;;
6356;SDS011;3211;53.452;-2.264;2022-11-20T02:13:59;5.67;;;4.20;;
6356;SDS011;3211;53.452;-2.264;2022-11-20T02:16:30;11.37;;;4.33;;
6356;SDS011;3211;53.452;-2.264;2022-11-20T02:19:01;10.00;;;4.07;;
6356;SDS011;3211;53.452;-2.264;2022-11-20T02:21:34;9.30;;;3.70;;
6356;SDS011;3211;53.452;-2.264;2022-11-20T02:24:05;5.53;;;3.07;;
6356;SDS011;3211;53.452;-2.264;2022-11-20T02:26:39;5.50;;;3.20;;
6356;SDS011;3211;53.452;-2.264;2022-11-20T02:29:32;9.10;;;3.70;;
6356;SDS011;3211;53.452;-2.264;2022-11-20T02:32:03;5.40;;;3.20;;
6356;SDS011;3211;53.452;-2.264;2022-11-20T02:34:48;4.63;;;3.17;;
6356;SDS011;3211;53.452;-2.264;2022-11-20T02:37:16;4.03;;;2.27;;
6356;SDS011;3211;53.452;-2.264;2022-11-20T02:39:45;4.53;;;2.93;;
6356;SDS011;3211;53.452;-2.264;2022-11-20T02:42:17;7.10;;;3.20;;
6356;SDS011;3211;53.452;-2.264;2022-11-20T02:44:44;5.27;;;3.00;;
6356;SDS011;3211;53.452;-2.264;2022-11-20T02:47:14;4.67;;;2.57;;
6356;SDS011;3211;53.452;-2.264;2022-11-20T02:49:41;3.97;;;2.00;;
6356;SDS011;3211;53.452;-2.264;2022-11-20T02:52:08;6.27;;;2.80;;
6356;SDS011;3211;53.452;-2.264;2022-11-20T02:54:54;4.60;;;2.50;;
6356;SDS011;3211;53.452;-2.264;2022-11-20T02:57:21;4.90;;;2.00;;
6356;SDS011;3211;53.452;-2.264;2022-11-20T02:59:48;2.70;;;2.07;;
6356;SDS011;3211;53.452;-2.264;2022-11-20T03:02:15;3.53;;;2.00;;
6356;SDS011;3211;53.452;-2.264;2022-11-20T03:04:42;6.03;;;2.37;;
6356;SDS011;3211;53.452;-2.264;2022-11-20T03:07:09;4.63;;;2.13;;
6356;SDS011;3211;53.452;-2.264;2022-11-20T03:09:56;4.83;;;2.57;;
6356;SDS011;3211;53.452;-2.264;2022-11-20T03:12:23;3.17;;;2.20;;
6356;SDS011;3211;53.452;-2.264;2022-11-20T03:14:50;3.00;;;1.80;;
6356;SDS011;3211;53.452;-2.264;2022-11-20T03:17:17;5.27;;;2.30;;
6356;SDS011;3211;53.452;-2.264;2022-11-20T03:19:44;3.97;;;1.70;;
6356;SDS011;3211;53.452;-2.264;2022-11-20T03:22:14;3.60;;;1.97;;
6356;SDS011;3211;53.452;-2.264;2022-11-20T03:24:41;3.67;;;1.50;;
6356;SDS011;3211;53.452;-2.264;2022-11-20T03:27:10;3.03;;;1.67;;
6356;SDS011;3211;53.452;-2.264;2022-11-20T03:29:55;2.23;;;1.60;;
6356;SDS011;3211;53.452;-2.264;2022-11-20T03:32:22;2.73;;;1.60;;
6356;SDS011;3211;53.452;-2.264;2022-11-20T03:34:49;2.80;;;1.70;;
6356;SDS011;3211;53.452;-2.264;2022-11-20T03:37:19;1.77;;;1.67;;
6356;SDS011;3211;53.452;-2.264;2022-11-20T03:39:46;7.53;;;1.90;;
6356;SDS011;3211;53.452;-2.264;2022-11-20T03:42:17;1.53;;;1.30;;
6356;SDS011;3211;53.452;-2.264;2022-11-20T03:44:57;2.03;;;1.60;;
6356;SDS011;3211;53.452;-2.264;2022-11-20T03:47:24;7.50;;;1.97;;
6356;SDS011;3211;53.452;-2.264;2022-11-20T03:49:51;3.30;;;1.90;;
6356;SDS011;3211;53.452;-2.264;2022-11-20T03:52:21;5.33;;;2.00;;
6356;SDS011;3211;53.452;-2.264;2022-11-20T03:54:48;3.37;;;2.23;;
6356;SDS011;3211;53.452;-2.264;2022-11-20T03:57:19;5.43;;;1.93;;
6356;SDS011;3211;53.452;-2.264;2022-11-20T03:59:46;2.70;;;1.80;;
6356;SDS011;3211;53.452;-2.264;2022-11-20T04:02:13;3.77;;;2.00;;
6356;SDS011;3211;53.452;-2.264;2022-11-20T04:04:40;1.90;;;1.70;;
6356;SDS011;3211;53.452;-2.264;2022-11-20T04:07:07;3.43;;;2.00;;
6356;SDS011;3211;53.452;-2.264;2022-11-20T04:09:53;3.20;;;1.87;;
6356;SDS011;3211;53.452;-2.264;2022-11-20T04:12:21;2.53;;;1.80;;
6356;SDS011;3211;53.452;-2.264;2022-11-20T04:14:48;3.03;;;2.27;;
6356;SDS011;3211;53.452;-2.264;2022-11-20T04:17:15;8.60;;;2.53;;
6356;SDS011;3211;53.452;-2.264;2022-11-20T04:19:42;3.03;;;2.10;;
6356;SDS011;3211;53.452;-2.264;2022-11-20T04:22:09;7.33;;;2.67;;
6356;SDS011;3211;53.452;-2.264;2022-11-20T04:24:37;5.77;;;2.37;;
6356;SDS011;3211;53.452;-2.264;2022-11-20T04:27:04;4.17;;;2.57;;
6356;SDS011;3211;53.452;-2.264;2022-11-20T04:29:50;3.83;;;2.50;;
6356;SDS011;3211;53.452;-2.264;2022-11-20T04:32:17;3.87;;;2.57;;
6356;SDS011;3211;53.452;-2.264;2022-11-20T04:34:44;4.87;;;2.67;;
6356;SDS011;3211;53.452;-2.264;2022-11-20T04:37:11;5.10;;;2.57;;
6356;SDS011;3211;53.452;-2.264;2022-11-20T04:39:38;4.17;;;2.90;;
6356;SDS011;3211;53.452;-2.264;2022-11-20T04:42:05;3.90;;;3.07;;
6356;SDS011;3211;53.452;-2.264;2022-11-20T04:44:53;5.60;;;3.07;;
6356;SDS011;3211;53.452;-2.264;2022-11-20T04:47:20;3.20;;;2.80;;
6356;SDS011;3211;53.452;-2.264;2022-11-20T04:49:48;3.00;;;2.70;;
6356;SDS011;3211;53.452;-2.264;2022-11-20T04:52:17;3.83;;;2.97;;
6356;SDS011;3211;53.452;-2.264;2022-11-20T04:54:44;3.93;;;2.73;;
6356;SDS011;3211;53.452;-2.264;2022-11-20T04:57:14;4.93;;;3.83;;
6356;SDS011;3211;53.452;-2.264;2022-11-20T04:59:41;4.97;;;3.23;;
6356;SDS011;3211;53.452;-2.264;2022-11-20T05:02:11;3.80;;;3.07;;
6356;SDS011;3211;53.452;-2.264;2022-11-20T05:04:38;4.07;;;3.00;;
6356;SDS011;3211;53.452;-2.264;2022-11-20T05:07:05;6.77;;;3.37;;
6356;SDS011;3211;53.452;-2.264;2022-11-20T05:09:32;4.50;;;3.20;;
6356;SDS011;3211;53.452;-2.264;2022-11-20T05:11:59;4.43;;;2.67;;
6356;SDS011;3211;53.452;-2.264;2022-11-20T05:14:26;8.73;;;3.33;;
6356;SDS011;3211;53.452;-2.264;2022-11-20T05:16:52;5.57;;;3.10;;
6356;SDS011;3211;53.452;-2.264;2022-11-20T05:19:21;4.30;;;3.23;;
6356;SDS011;3211;53.452;-2.264;2022-11-20T05:21:48;4.90;;;2.90;;
6356;SDS011;3211;53.452;-2.264;2022-11-20T05:24:33;4.87;;;3.57;;
6356;SDS011;3211;53.452;-2.264;2022-11-20T05:27:00;5.17;;;3.30;;
6356;SDS011;3211;53.452;-2.264;2022-11-20T05:29:46;6.13;;;3.47;;
6356;SDS011;3211;53.452;-2.264;2022-11-20T05:32:12;4.47;;;3.40;;
6356;SDS011;3211;53.452;-2.264;2022-11-20T05:35:00;5.20;;;3.20;;
6356;SDS011;3211;53.452;-2.264;2022-11-20T05:37:27;3.70;;;3.30;;
6356;SDS011;3211;53.452;-2.264;2022-11-20T05:39:54;7.10;;;2.90;;
6356;SDS011;3211;53.452;-2.264;2022-11-20T05:42:20;6.17;;;3.60;;
6356;SDS011;3211;53.452;-2.264;2022-11-20T05:44:56;5.17;;;3.40;;
6356;SDS011;3211;53.452;-2.264;2022-11-20T05:47:23;6.93;;;3.50;;
6356;SDS011;3211;53.452;-2.264;2022-11-20T05:49:51;4.80;;;3.73;;
6356;SDS011;3211;53.452;-2.264;2022-11-20T05:52:22;6.13;;;3.47;;
6356;SDS011;3211;53.452;-2.264;2022-11-20T05:54:49;8.27;;;3.80;;
6356;SDS011;3211;53.452;-2.264;2022-11-20T05:57:19;3.43;;;3.13;;
6356;SDS011;3211;53.452;-2.264;2022-11-20T05:59:46;8.87;;;3.47;;
6356;SDS011;3211;53.452;-2.264;2022-11-20T06:02:13;6.50;;;3.47;;
6356;SDS011;3211;53.452;-2.264;2022-11-20T06:04:40;5.33;;;3.00;;
6356;SDS011;3211;53.452;-2.264;2022-11-20T06:07:07;6.40;;;3.53;;
6356;SDS011;3211;53.452;-2.264;2022-11-20T06:09:35;6.97;;;4.10;;
6356;SDS011;3211;53.452;-2.264;2022-11-20T06:12:02;4.70;;;3.43;;
6356;SDS011;3211;53.452;-2.264;2022-11-20T06:14:30;8.30;;;4.00;;
6356;SDS011;3211;53.452;-2.264;2022-11-20T06:16:57;4.30;;;3.27;;
6356;SDS011;3211;53.452;-2.264;2022-11-20T06:19:24;3.80;;;2.97;;
6356;SDS011;3211;53.452;-2.264;2022-11-20T06:21:51;4.93;;;3.40;;
6356;SDS011;3211;53.452;-2.264;2022-11-20T06:24:38;7.43;;;4.13;;
6356;SDS011;3211;53.452;-2.264;2022-11-20T06:27:05;5.87;;;4.07;;
6356;SDS011;3211;53.452;-2.264;2022-11-20T06:29:32;5.87;;;3.80;;
6356;SDS011;3211;53.452;-2.264;2022-11-20T06:31:59;4.83;;;3.47;;
6356;SDS011;3211;53.452;-2.264;2022-11-20T06:34:45;7.87;;;3.43;;
6356;SDS011;3211;53.452;-2.264;2022-11-20T06:37:12;6.17;;;3.67;;
6356;SDS011;3211;53.452;-2.264;2022-11-20T06:39:40;5.40;;;3.37;;
6356;SDS011;3211;53.452;-2.264;2022-11-20T06:42:07;3.80;;;3.40;;
6356;SDS011;3211;53.452;-2.264;2022-11-20T06:44:53;6.10;;;3.90;;
6356;SDS011;3211;53.452;-2.264;2022-11-20T06:47:20;5.87;;;3.60;;
6356;SDS011;3211;53.452;-2.264;2022-11-20T06:49:47;4.93;;;3.70;;
6356;SDS011;3211;53.452;-2.264;2022-11-20T06:52:17;7.50;;;4.10;;
6356;SDS011;3211;53.452;-2.264;2022-11-20T06:54:45;8.30;;;3.93;;
6356;SDS011;3211;53.452;-2.264;2022-11-20T06:57:12;6.50;;;4.20;;
6356;SDS011;3211;53.452;-2.264;2022-11-20T06:59:39;5.00;;;3.70;;
6356;SDS011;3211;53.452;-2.264;2022-11-20T07:02:08;7.37;;;3.50;;
6356;SDS011;3211;53.452;-2.264;2022-11-20T07:04:36;6.83;;;3.63;;
6356;SDS011;3211;53.452;-2.264;2022-11-20T07:07:03;5.40;;;3.70;;
6356;SDS011;3211;53.452;-2.264;2022-11-20T07:09:31;7.00;;;4.50;;
6356;SDS011;3211;53.452;-2.264;2022-11-20T07:12:00;4.60;;;4.17;;
6356;SDS011;3211;53.452;-2.264;2022-11-20T07:14:45;4.40;;;3.90;;
6356;SDS011;3211;53.452;-2.264;2022-11-20T07:17:12;6.23;;;4.03;;
6356;SDS011;3211;53.452;-2.264;2022-11-20T07:19:39;9.30;;;4.00;;
6356;SDS011;3211;53.452;-2.264;2022-11-20T07:22:07;6.07;;;3.83;;
6356;SDS011;3211;53.452;-2.264;2022-11-20T07:24:53;10.70;;;4.30;;
6356;SDS011;3211;53.452;-2.264;2022-11-20T07:27:21;5.60;;;3.60;;
6356;SDS011;3211;53.452;-2.264;2022-11-20T07:29:48;6.20;;;3.73;;
6356;SDS011;3211;53.452;-2.264;2022-11-20T07:32:15;8.10;;;4.20;;
6356;SDS011;3211;53.452;-2.264;2022-11-20T07:34:42;7.30;;;3.70;;
6356;SDS011;3211;53.452;-2.264;2022-11-20T07:37:09;17.73;;;4.67;;
6356;SDS011;3211;53.452;-2.264;2022-11-20T07:39:55;12.27;;;4.33;;
6356;SDS011;3211;53.452;-2.264;2022-11-20T07:42:23;13.80;;;4.20;;
6356;SDS011;3211;53.452;-2.264;2022-11-20T07:44:50;8.23;;;4.00;;
6356;SDS011;3211;53.452;-2.264;2022-11-20T07:47:20;9.93;;;3.40;;
6356;SDS011;3211;53.452;-2.264;2022-11-20T07:49:47;10.10;;;3.50;;
6356;SDS011;3211;53.452;-2.264;2022-11-20T07:52:17;11.50;;;3.27;;
6356;SDS011;3211;53.452;-2.264;2022-11-20T07:54:44;11.60;;;4.60;;
6356;SDS011;3211;53.452;-2.264;2022-11-20T07:57:13;12.87;;;5.47;;
6356;SDS011;3211;53.452;-2.264;2022-11-20T07:59:42;9.27;;;3.60;;
6356;SDS011;3211;53.452;-2.264;2022-11-20T08:02:10;16.77;;;4.10;;
6356;SDS011;3211;53.452;-2.264;2022-11-20T08:04:37;12.93;;;3.40;;
6356;SDS011;3211;53.452;-2.264;2022-11-20T08:07:04;12.33;;;4.20;;
6356;SDS011;3211;53.452;-2.264;2022-11-20T08:09:31;16.63;;;3.13;;
6356;SDS011;3211;53.452;-2.264;2022-11-20T08:11:58;14.13;;;3.40;;
6356;SDS011;3211;53.452;-2.264;2022-11-20T08:15:04;15.97;;;3.77;;
6356;SDS011;3211;53.452;-2.264;2022-11-20T08:17:33;10.70;;;3.40;;
6356;SDS011;3211;53.452;-2.264;2022-11-20T08:20:00;13.93;;;3.30;;
6356;SDS011;3211;53.452;-2.264;2022-11-20T08:22:26;10.90;;;3.37;;
6356;SDS011;3211;53.452;-2.264;2022-11-20T08:24:53;14.37;;;3.07;;
6356;SDS011;3211;53.452;-2.264;2022-11-20T08:27:20;11.80;;;3.37;;
6356;SDS011;3211;53.452;-2.264;2022-11-20T08:29:47;14.77;;;4.30;;
6356;SDS011;3211;53.452;-2.264;2022-11-20T08:32:16;15.40;;;3.50;;
6356;SDS011;3211;53.452;-2.264;2022-11-20T08:34:43;23.00;;;3.50;;
6356;SDS011;3211;53.452;-2.264;2022-11-20T08:37:12;19.23;;;3.77;;
6356;SDS011;3211;53.452;-2.264;2022-11-20T08:39:39;15.73;;;3.50;;
6356;SDS011;3211;53.452;-2.264;2022-11-20T08:42:06;16.60;;;3.67;;
6356;SDS011;3211;53.452;-2.264;2022-11-20T08:44:33;17.93;;;3.97;;
6356;SDS011;3211;53.452;-2.264;2022-11-20T08:47:00;22.30;;;4.70;;
6356;SDS011;3211;53.452;-2.264;2022-11-20T08:49:47;15.40;;;4.10;;
6356;SDS011;3211;53.452;-2.264;2022-11-20T08:52:14;21.47;;;4.47;;
6356;SDS011;3211;53.452;-2.264;2022-11-20T08:54:41;12.03;;;3.53;;
6356;SDS011;3211;53.452;-2.264;2022-11-20T08:57:11;13.20;;;3.60;;
6356;SDS011;3211;53.452;-2.264;2022-11-20T08:59:38;12.30;;;3.43;;
6356;SDS011;3211;53.452;-2.264;2022-11-20T09:02:05;16.73;;;4.00;;
6356;SDS011;3211;53.452;-2.264;2022-11-20T09:04:32;14.27;;;3.40;;
6356;SDS011;3211;53.452;-2.264;2022-11-20T09:07:01;13.43;;;3.43;;
6356;SDS011;3211;53.452;-2.264;2022-11-20T09:09:47;8.33;;;2.70;;
6356;SDS011;3211;53.452;-2.264;2022-11-20T09:12:14;16.30;;;3.97;;
6356;SDS011;3211;53.452;-2.264;2022-11-20T09:14:41;17.27;;;4.70;;
6356;SDS011;3211;53.452;-2.264;2022-11-20T09:17:09;9.13;;;2.90;;
6356;SDS011;3211;53.452;-2.264;2022-11-20T09:19:39;18.60;;;3.17;;
6356;SDS011;3211;53.452;-2.264;2022-11-20T09:22:08;19.93;;;4.30;;
6356;SDS011;3211;53.452;-2.264;2022-11-20T09:24:35;17.93;;;3.43;;
6356;SDS011;3211;53.452;-2.264;2022-11-20T09:27:03;12.27;;;2.90;;
6356;SDS011;3211;53.452;-2.264;2022-11-20T09:29:48;12.03;;;2.40;;
6356;SDS011;3211;53.452;-2.264;2022-11-20T09:32:15;17.53;;;3.13;;
6356;SDS011;3211;53.452;-2.264;2022-11-20T09:34:42;12.90;;;2.60;;
6356;SDS011;3211;53.452;-2.264;2022-11-20T09:37:11;12.63;;;2.60;;
6356;SDS011;3211;53.452;-2.264;2022-11-20T09:39:38;8.17;;;2.83;;
6356;SDS011;3211;53.452;-2.264;2022-11-20T09:42:14;7.13;;;2.50;;
6356;SDS011;3211;53.452;-2.264;2022-11-20T09:44:55;18.40;;;3.67;;
6356;SDS011;3211;53.452;-2.264;2022-11-20T09:47:54;8.00;;;2.73;;
6356;SDS011;3211;53.452;-2.264;2022-11-20T09:50:51;7.03;;;2.57;;
6356;SDS011;3211;53.452;-2.264;2022-11-20T09:53:26;9.40;;;2.93;;
6356;SDS011;3211;53.452;-2.264;2022-11-20T09:55:57;8.57;;;2.97;;
6356;SDS011;3211;53.452;-2.264;2022-11-20T09:58:28;11.87;;;3.37;;
6356;SDS011;3211;53.452;-2.264;2022-11-20T10:00:59;13.47;;;3.47;;
6356;SDS011;3211;53.452;-2.264;2022-11-20T10:03:36;20.87;;;3.67;;
6356;SDS011;3211;53.452;-2.264;2022-11-20T10:06:08;11.13;;;3.40;;
6356;SDS011;3211;53.452;-2.264;2022-11-20T10:08:44;11.90;;;2.77;;
6356;SDS011;3211;53.452;-2.264;2022-11-20T10:11:17;13.93;;;2.97;;
6356;SDS011;3211;53.452;-2.264;2022-11-20T10:13:58;14.70;;;3.70;;
6356;SDS011;3211;53.452;-2.264;2022-11-20T10:16:33;13.33;;;2.97;;
6356;SDS011;3211;53.452;-2.264;2022-11-20T10:19:11;16.60;;;3.47;;
6356;SDS011;3211;53.452;-2.264;2022-11-20T10:21:52;11.83;;;3.30;;
6356;SDS011;3211;53.452;-2.264;2022-11-20T10:27:47;10.20;;;3.67;;
6356;SDS011;3211;53.452;-2.264;2022-11-20T10:30:22;12.77;;;3.63;;
6356;SDS011;3211;53.452;-2.264;2022-11-20T10:32:52;18.27;;;4.43;;
6356;SDS011;3211;53.452;-2.264;2022-11-20T10:35:26;19.87;;;3.63;;
6356;SDS011;3211;53.452;-2.264;2022-11-20T10:37:59;11.20;;;3.50;;
6356;SDS011;3211;53.452;-2.264;2022-11-20T10:40:31;13.30;;;3.03;;
6356;SDS011;3211;53.452;-2.264;2022-11-20T10:43:24;21.60;;;4.43;;
6356;SDS011;3211;53.452;-2.264;2022-11-20T10:46:00;14.53;;;4.60;;
6356;SDS011;3211;53.452;-2.264;2022-11-20T10:48:50;23.80;;;4.20;;
6356;SDS011;3211;53.452;-2.264;2022-11-20T10:51:21;13.87;;;4.23;;
6356;SDS011;3211;53.452;-2.264;2022-11-20T10:54:08;11.67;;;3.50;;
6356;SDS011;3211;53.452;-2.264;2022-11-20T10:56:47;14.20;;;4.10;;
6356;SDS011;3211;53.452;-2.264;2022-11-20T10:59:38;11.53;;;3.93;;
6356;SDS011;3211;53.452;-2.264;2022-11-20T11:02:15;22.70;;;3.97;;
6356;SDS011;3211;53.452;-2.264;2022-11-20T11:04:44;16.60;;;2.93;;
6356;SDS011;3211;53.452;-2.264;2022-11-20T11:07:16;14.10;;;3.40;;
6356;SDS011;3211;53.452;-2.264;2022-11-20T11:09:47;16.30;;;2.77;;
6356;SDS011;3211;53.452;-2.264;2022-11-20T11:12:17;11.73;;;3.57;;
6356;SDS011;3211;53.452;-2.264;2022-11-20T11:14:47;11.53;;;3.30;;
6356;SDS011;3211;53.452;-2.264;2022-11-20T11:17:22;7.67;;;2.70;;
6356;SDS011;3211;53.452;-2.264;2022-11-20T11:19:56;17.57;;;4.50;;
6356;SDS011;3211;53.452;-2.264;2022-11-20T11:22:24;13.73;;;3.10;;
6356;SDS011;3211;53.452;-2.264;2022-11-20T11:24:54;11.10;;;3.03;;
6356;SDS011;3211;53.452;-2.264;2022-11-20T11:27:25;6.60;;;2.47;;
6356;SDS011;3211;53.452;-2.264;2022-11-20T11:30:01;13.20;;;2.40;;
6356;SDS011;3211;53.452;-2.264;2022-11-20T11:32:39;11.80;;;3.00;;
6356;SDS011;3211;53.452;-2.264;2022-11-20T11:35:25;12.57;;;3.10;;
6356;SDS011;3211;53.452;-2.264;2022-11-20T11:38:01;18.10;;;3.20;;
6356;SDS011;3211;53.452;-2.264;2022-11-20T11:40:49;15.17;;;3.10;;
6356;SDS011;3211;53.452;-2.264;2022-11-20T11:43:21;11.50;;;3.00;;
6356;SDS011;3211;53.452;-2.264;2022-11-20T11:46:30;12.57;;;3.93;;
6356;SDS011;3211;53.452;-2.264;2022-11-20T11:48:59;9.80;;;2.50;;
6356;SDS011;3211;53.452;-2.264;2022-11-20T11:51:29;9.47;;;2.73;;
6356;SDS011;3211;53.452;-2.264;2022-11-20T11:54:03;16.77;;;4.80;;
6356;SDS011;3211;53.452;-2.264;2022-11-20T11:56:50;15.17;;;3.40;;
6356;SDS011;3211;53.452;-2.264;2022-11-20T11:59:21;13.97;;;2.73;;
6356;SDS011;3211;53.452;-2.264;2022-11-20T12:01:53;16.67;;;4.30;;
6356;SDS011;3211;53.452;-2.264;2022-11-20T12:04:26;10.53;;;3.43;;
6356;SDS011;3211;53.452;-2.264;2022-11-20T12:07:09;16.70;;;3.20;;
6356;SDS011;3211;53.452;-2.264;2022-11-20T12:09:41;17.93;;;3.10;;
6356;SDS011;3211;53.452;-2.264;2022-11-20T12:12:31;12.10;;;3.10;;
6356;SDS011;3211;53.452;-2.264;2022-11-20T12:15:06;10.77;;;3.20;;
6356;SDS011;3211;53.452;-2.264;2022-11-20T12:17:37;9.30;;;2.83;;
6356;SDS011;3211;53.452;-2.264;2022-11-20T12:20:10;10.97;;;2.90;;
6356;SDS011;3211;53.452;-2.264;2022-11-20T12:22:41;9.30;;;2.90;;
6356;SDS011;3211;53.452;-2.264;2022-11-20T12:25:16;11.27;;;3.33;;
6356;SDS011;3211;53.452;-2.264;2022-11-20T12:27:51;8.67;;;2.83;;
6356;SDS011;3211;53.452;-2.264;2022-11-20T12:30:30;12.37;;;3.20;;
6356;SDS011;3211;53.452;-2.264;2022-11-20T12:33:04;13.80;;;3.33;;
6356;SDS011;3211;53.452;-2.264;2022-11-20T12:35:44;18.43;;;4.00;;
6356;SDS011;3211;53.452;-2.264;2022-11-20T12:38:35;11.77;;;3.03;;
6356;SDS011;3211;53.452;-2.264;2022-11-20T12:41:22;8.70;;;3.27;;
6356;SDS011;3211;53.452;-2.264;2022-11-20T12:44:25;10.53;;;2.97;;
6356;SDS011;3211;53.452;-2.264;2022-11-20T12:47:27;11.70;;;3.20;;
6356;SDS011;3211;53.452;-2.264;2022-11-20T12:50:01;12.37;;;4.00;;
6356;SDS011;3211;53.452;-2.264;2022-11-20T12:52:41;8.57;;;3.47;;
6356;SDS011;3211;53.452;-2.264;2022-11-20T12:55:20;8.83;;;2.93;;
6356;SDS011;3211;53.452;-2.264;2022-11-20T12:57:53;10.60;;;2.87;;
6356;SDS011;3211;53.452;-2.264;2022-11-20T13:00:24;12.70;;;3.37;;
6356;SDS011;3211;53.452;-2.264;2022-11-20T13:05:59;12.53;;;3.50;;
6356;SDS011;3211;53.452;-2.264;2022-11-20T13:08:33;15.97;;;3.20;;
6356;SDS011;3211;53.452;-2.264;2022-11-20T13:11:02;12.37;;;4.00;;
6356;SDS011;3211;53.452;-2.264;2022-11-20T13:13:41;12.70;;;3.93;;
6356;SDS011;3211;53.452;-2.264;2022-11-20T13:16:32;6.50;;;3.07;;
6356;SDS011;3211;53.452;-2.264;2022-11-20T13:19:05;8.23;;;2.73;;
6356;SDS011;3211;53.452;-2.264;2022-11-20T13:21:38;17.07;;;3.50;;
6356;SDS011;3211;53.452;-2.264;2022-11-20T13:24:06;14.07;;;3.80;;
6356;SDS011;3211;53.452;-2.264;2022-11-20T13:26:34;11.13;;;3.27;;
6356;SDS011;3211;53.452;-2.264;2022-11-20T13:29:02;11.80;;;3.80;;
6356;SDS011;3211;53.452;-2.264;2022-11-20T13:31:38;14.50;;;3.10;;
6356;SDS011;3211;53.452;-2.264;2022-11-20T13:34:11;7.70;;;3.23;;
6356;SDS011;3211;53.452;-2.264;2022-11-20T13:36:48;8.70;;;2.43;;
6356;SDS011;3211;53.452;-2.264;2022-11-20T13:39:23;9.07;;;3.07;;
6356;SDS011;3211;53.452;-2.264;2022-11-20T13:42:20;13.40;;;3.73;;
6356;SDS011;3211;53.452;-2.264;2022-11-20T13:44:53;10.30;;;3.70;;
6356;SDS011;3211;53.452;-2.264;2022-11-20T13:47:22;7.93;;;2.67;;
6356;SDS011;3211;53.452;-2.264;2022-11-20T13:49:51;8.83;;;3.07;;
6356;SDS011;3211;53.452;-2.264;2022-11-20T13:52:33;7.03;;;2.83;;
6356;SDS011;3211;53.452;-2.264;2022-11-20T13:55:16;8.80;;;2.87;;
6356;SDS011;3211;53.452;-2.264;2022-11-20T13:57:55;13.33;;;3.17;;
6356;SDS011;3211;53.452;-2.264;2022-11-20T14:00:43;12.83;;;3.07;;
6356;SDS011;3211;53.452;-2.264;2022-11-20T14:03:16;15.83;;;3.73;;
6356;SDS011;3211;53.452;-2.264;2022-11-20T14:05:49;7.97;;;3.13;;
6356;SDS011;3211;53.452;-2.264;2022-11-20T14:08:23;12.63;;;3.20;;
6356;SDS011;3211;53.452;-2.264;2022-11-20T14:11:06;19.27;;;3.40;;
6356;SDS011;3211;53.452;-2.264;2022-11-20T14:13:39;12.37;;;3.53;;
6356;SDS011;3211;53.452;-2.264;2022-11-20T14:16:25;10.30;;;3.10;;
6356;SDS011;3211;53.452;-2.264;2022-11-20T14:18:53;16.80;;;3.47;;
6356;SDS011;3211;53.452;-2.264;2022-11-20T14:21:22;8.50;;;3.00;;
6356;SDS011;3211;53.452;-2.264;2022-11-20T14:24:02;8.27;;;3.50;;
6356;SDS011;3211;53.452;-2.264;2022-11-20T14:26:30;19.87;;;4.37;;
6356;SDS011;3211;53.452;-2.264;2022-11-20T14:28:58;16.43;;;3.93;;
6356;SDS011;3211;53.452;-2.264;2022-11-20T14:31:25;13.97;;;3.50;;
6356;SDS011;3211;53.452;-2.264;2022-11-20T14:33:53;11.57;;;3.27;;
6356;SDS011;3211;53.452;-2.264;2022-11-20T14:36:23;8.37;;;3.30;;
6356;SDS011;3211;53.452;-2.264;2022-11-20T14:38:51;9.73;;;3.37;;
6356;SDS011;3211;53.452;-2.264;2022-11-20T14:41:19;5.97;;;3.00;;
6356;SDS011;3211;53.452;-2.264;2022-11-20T14:43:50;4.80;;;2.10;;
6356;SDS011;3211;53.452;-2.264;2022-11-20T14:46:20;7.53;;;2.73;;
6356;SDS011;3211;53.452;-2.264;2022-11-20T14:48:48;5.70;;;3.30;;
6356;SDS011;3211;53.452;-2.264;2022-11-20T14:51:25;6.30;;;2.83;;
6356;SDS011;3211;53.452;-2.264;2022-11-20T14:53:54;8.00;;;2.50;;
6356;SDS011;3211;53.452;-2.264;2022-11-20T14:56:21;7.67;;;2.83;;
6356;SDS011;3211;53.452;-2.264;2022-11-20T14:58:55;4.87;;;2.40;;
6356;SDS011;3211;53.452;-2.264;2022-11-20T15:01:25;4.20;;;1.90;;
6356;SDS011;3211;53.452;-2.264;2022-11-20T15:03:58;4.63;;;1.73;;
6356;SDS011;3211;53.452;-2.264;2022-11-20T15:06:28;1.87;;;1.30;;
6356;SDS011;3211;53.452;-2.264;2022-11-20T15:08:56;6.77;;;2.03;;
6356;SDS011;3211;53.452;-2.264;2022-11-20T15:11:27;4.60;;;1.77;;
6356;SDS011;3211;53.452;-2.264;2022-11-20T15:13:56;4.13;;;1.60;;
6356;SDS011;3211;53.452;-2.264;2022-11-20T15:16:27;2.63;;;1.40;;
6356;SDS011;3211;53.452;-2.264;2022-11-20T15:18:54;2.80;;;1.70;;
6356;SDS011;3211;53.452;-2.264;2022-11-20T15:21:21;2.10;;;1.37;;
6356;SDS011;3211;53.452;-2.264;2022-11-20T15:23:50;2.83;;;1.50;;
6356;SDS011;3211;53.452;-2.264;2022-11-20T15:26:20;3.70;;;1.50;;
6356;SDS011;3211;53.452;-2.264;2022-11-20T15:28:50;4.43;;;1.20;;
6356;SDS011;3211;53.452;-2.264;2022-11-20T15:31:18;1.60;;;1.50;;